Alberta, VA (23821)

8:52 AM EDT on July 23, 2016 (GMT -0400)
Dundas | | Change Station

Elev 466 ft 36.92 °N, 78.02 °W | Updated 13 minutes ago

Clear
Clear
86.5 °F
Feels Like 96 °F
N
2.7
Wind Variable Wind from SW

Today
High -- | Low -- °F
--% Chance of Precip.
Yesterday
High -- | Low -- °F
Precip. -- in
Pressure 30.04 in
Visibility 10.0 miles
Clouds Clear
Heat Index 96 °F
Dew Point 75 °F
Humidity 69%
Rainfall 0.00 in
Snow Depth Not available.
6:10 AM 8:25 PM
Waning Gibbous, 85% visible
METAR KAVC 231236Z AUTO 25003KT 10SM CLR 26/23 A3004 RMK AO2 T02610226
Pressure 30.04 in
Visibility 10.0 miles
Clouds Clear
Heat Index 96 °F
Dew Point 75 °F
Humidity 69%
Rainfall 0.00 in
Snow Depth Not available.
6:10 AM 8:25 PM
Waning Gibbous, 85% visible
METAR KAVC 231236Z AUTO 25003KT 10SM CLR 26/23 A3004 RMK AO2 T02610226

10-Day Weather Forecast

Almanac

Astronomy

Jul. 23, 2016 Rise Set
Actual Time
Civil Twilight
Nautical Twilight
Astronomical Twilight
Moon
Length of Visible Light
Length of Day
Tomorrow will be .
, % of the Moon is Illuminated

Today's Extremes

State Highs State Lows

Community

WunderPhotos

Upload Photos

1,926,816 photos uploaded!

WunderBlog® & News

Nearby

Air Quality

  Air Quality AQ Index Pollutant
Not available.

Snow Depth

Station Depth Elevation

Earthquake Activity

City Distance Mag. Time & Date
Minimum magnitude displayed is 2.5.

Coastal Water Temperatures

Place Temperature

Stations

Nearby Weather Stations

Station Location Temp. Windchill Dew Point Humidity Wind Precip. Elev Updated Type
                   

Watches & Warnings

There are currently no watches in effect.